Terminal Aerodrome Forecast
Issued by NWS Knoxville/Tri Cities, TN

Home | Current Version | Previous Version | Text Only | Print | Product List | Glossary On
Versions: 1 2 3 4 5 6 7 8 9 10 11 12 13 14 15 16 17 18 19 20 21 22 23 24 25 26 27 28 29 30 31 32 33 34 35 36 37 38 39 40 41 42
217
FTUS44 KMRX 211740 CCA
TAFCHA
TAF COR
KCHA 211740Z 2118/2218 17007KT P6SM VCSH BKN040
     FM220000 18005KT P6SM VCSH OVC020
     FM220800 18003KT 4SM BR OVC015
     FM221500 19006KT P6SM OVC025=

USA.gov is the U.S. government's official web portal to all federal, state and local government web resources and services.